createdAt,value
2018-01-05T00:00:00.861Z,5.44
2018-01-05T00:01:00.458Z,5.44
2018-01-05T00:01:59.941Z,5.44
2018-01-05T00:03:00.299Z,5.49
2018-01-05T00:04:00.594Z,5.45
2018-01-05T00:04:59.931Z,5.44
2018-01-05T00:06:00.530Z,5.35
2018-01-05T00:06:59.985Z,5.31
2018-01-05T00:08:00.355Z,5.3
2018-01-05T00:09:00.690Z,5.35
2018-01-05T00:10:00.287Z,5.3
2018-01-05T00:10:59.781Z,5.32
2018-01-05T00:12:00.036Z,5.34
2018-01-05T00:13:00.516Z,5.25
2018-01-05T00:14:00.003Z,5.29
2018-01-05T00:15:00.262Z,5.22
2018-01-05T00:16:00.547Z,5.22
2018-01-05T00:19:05.660Z,4.91
2018-01-05T00:19:59.957Z,4.87
2018-01-05T00:21:00.434Z,4.78
2018-01-05T00:22:00.011Z,4.75
2018-01-05T00:23:00.235Z,4.79
2018-01-05T00:24:00.459Z,4.62
2018-01-05T00:25:00.746Z,4.6
2018-01-05T00:25:59.895Z,4.5
2018-01-05T00:27:00.169Z,4.6
2018-01-05T00:28:00.384Z,4.61
2018-01-05T00:29:00.534Z,4.61
2018-01-05T00:29:59.861Z,4.65
2018-01-05T00:31:00.175Z,4.73
2018-01-05T00:32:00.424Z,4.73
2018-01-05T00:32:59.931Z,4.74
2018-01-05T00:34:00.325Z,4.73
2018-01-05T00:35:00.547Z,4.75
2018-01-05T00:36:00.528Z,4.76
2018-01-05T00:37:00.754Z,4.67
2018-01-05T00:38:00.133Z,4.7
2018-01-05T00:39:00.424Z,4.71
2018-01-05T00:40:00.714Z,4.69
2018-01-05T00:41:00.056Z,4.76
2018-01-05T00:42:00.264Z,4.73
2018-01-05T00:43:00.410Z,4.64
2018-01-05T00:44:01.001Z,4.58
2018-01-05T00:45:00.448Z,4.57
2018-01-05T00:45:59.998Z,4.52
2018-01-05T00:47:00.379Z,4.53
2018-01-05T00:48:00.759Z,4.51
2018-01-05T00:49:00.122Z,4.57
2018-01-05T00:50:00.436Z,4.51
2018-01-05T00:51:00.080Z,4.49
2018-01-05T00:52:00.441Z,4.41
2018-01-05T00:53:00.758Z,4.44
2018-01-05T00:54:00.353Z,4.41
2018-01-05T00:55:00.882Z,4.36
2018-01-05T00:56:00.214Z,4.45
2018-01-05T00:57:00.432Z,4.37
2018-01-05T00:58:00.619Z,4.34
2018-01-05T00:58:59.801Z,4.41
2018-01-05T01:00:00.348Z,4.4
2018-01-05T01:01:01.006Z,4.43
2018-01-05T01:02:00.474Z,4.39
2018-01-05T01:03:00.960Z,4.47
2018-01-05T01:04:00.241Z,4.32
2018-01-05T01:05:00.768Z,4.32
2018-01-05T01:06:01.020Z,4.31
2018-01-05T01:07:00.417Z,4.38
2018-01-05T01:08:00.758Z,4.35
2018-01-05T01:09:01.008Z,4.29
2018-01-05T01:10:00.197Z,4.2
2018-01-05T01:11:01.113Z,4.17
2018-01-05T01:12:00.375Z,4.23
2018-01-05T01:13:00.647Z,4.3
2018-01-05T01:14:00.966Z,4.19
2018-01-05T01:15:00.427Z,4.15
2018-01-05T01:16:00.744Z,4.21
2018-01-05T01:17:01.080Z,4.22
2018-01-05T01:18:00.365Z,4.28
2018-01-05T01:19:00.761Z,4.31
2018-01-05T01:20:00.124Z,4.23
2018-01-05T01:21:00.417Z,4.29
2018-01-05T01:22:00.610Z,4.25
2018-01-05T01:23:00.821Z,4.34
2018-01-05T01:24:01.053Z,4.37
2018-01-05T01:25:00.398Z,4.37
2018-01-05T01:26:01.049Z,4.37
2018-01-05T01:27:00.275Z,4.43
2018-01-05T01:28:00.331Z,4.45
2018-01-05T01:29:00.575Z,4.41
2018-01-05T01:30:01.110Z,4.29
2018-01-05T01:31:00.463Z,4.28
2018-01-05T01:32:00.872Z,4.3
2018-01-05T01:33:00.179Z,4.38
2018-01-05T01:34:00.619Z,4.45
2018-01-05T01:35:00.879Z,4.55
2018-01-05T01:36:00.294Z,4.6
2018-01-05T01:37:00.505Z,4.62
2018-01-05T01:38:00.704Z,4.63
2018-01-05T01:39:00.880Z,4.63
2018-01-05T01:41:24.259Z,4.7
2018-01-05T01:42:00.656Z,4.68
2018-01-05T01:43:00.069Z,4.73
2018-01-05T01:44:00.456Z,4.83
2018-01-05T01:45:00.734Z,4.74
2018-01-05T01:46:00.859Z,4.82
2018-01-05T01:47:00.375Z,4.78
2018-01-05T01:48:00.682Z,4.86
2018-01-05T01:49:00.160Z,4.83
2018-01-05T01:50:00.424Z,4.87
2018-01-05T01:51:00.678Z,4.86
2018-01-05T01:52:01.014Z,4.84
2018-01-05T01:53:00.273Z,4.9
2018-01-05T01:54:00.457Z,4.83
2018-01-05T01:55:00.751Z,4.77
2018-01-05T01:56:00.128Z,4.85
2018-01-05T01:57:00.508Z,4.89
2018-01-05T01:58:00.142Z,4.95
2018-01-05T01:59:00.482Z,4.96
2018-01-05T02:00:00.679Z,5
2018-01-05T02:01:01.105Z,4.98
2018-01-05T02:02:00.610Z,4.98
2018-01-05T02:03:01.115Z,5
2018-01-05T02:04:00.525Z,4.98
2018-01-05T02:05:00.904Z,4.9
2018-01-05T02:06:00.107Z,4.91
2018-01-05T02:07:00.273Z,4.86
2018-01-05T02:08:00.408Z,4.91
2018-01-05T02:09:00.914Z,4.91
2018-01-05T02:10:00.330Z,4.84
2018-01-05T02:11:00.733Z,4.87
2018-01-05T02:12:00.843Z,4.73
2018-01-05T02:13:00.058Z,4.76
2018-01-05T02:14:00.497Z,4.87
2018-01-05T02:15:00.882Z,4.89
2018-01-05T02:16:00.333Z,4.81
2018-01-05T02:17:00.716Z,4.87
2018-01-05T02:18:00.145Z,4.91
2018-01-05T02:19:00.389Z,4.72
2018-01-05T02:20:00.830Z,4.7
2018-01-05T02:21:00.177Z,4.79
2018-01-05T02:22:00.440Z,4.79
2018-01-05T02:23:00.662Z,4.85
2018-01-05T02:24:00.861Z,4.83
2018-01-05T02:25:00.896Z,4.78
2018-01-05T02:26:00.214Z,4.8
2018-01-05T02:27:00.800Z,4.85
2018-01-05T02:28:01.046Z,4.66
2018-01-05T02:29:00.336Z,4.68
2018-01-05T02:30:00.678Z,4.75
2018-01-05T02:31:00.028Z,4.81
2018-01-05T02:32:00.247Z,4.77
2018-01-05T02:33:00.599Z,4.75
2018-01-05T02:34:01.118Z,4.66
2018-01-05T02:35:02.349Z,4.74
2018-01-05T02:36:00.594Z,4.72
2018-01-05T02:37:01.024Z,4.83
2018-01-05T02:38:00.539Z,4.85
2018-01-05T02:39:00.824Z,4.88
2018-01-05T02:40:01.379Z,4.86
2018-01-05T02:41:00.830Z,4.89
2018-01-05T02:42:01.204Z,4.91
2018-01-05T02:43:00.638Z,4.9
2018-01-05T02:44:00.973Z,4.93
2018-01-05T02:45:01.294Z,4.92
2018-01-05T02:46:00.696Z,4.99
2018-01-05T02:47:00.982Z,4.97
2018-01-05T02:49:24.063Z,5.01
2018-01-05T02:50:00.432Z,4.96
2018-01-05T02:51:00.885Z,4.94
2018-01-05T02:52:01.060Z,4.86
2018-01-05T02:53:00.389Z,4.94
2018-01-05T02:54:00.543Z,4.93
2018-01-05T02:55:00.810Z,4.92
2018-01-05T02:56:00.970Z,5.02
2018-01-05T02:57:00.191Z,4.95
2018-01-05T02:58:00.266Z,4.94
2018-01-05T02:59:00.380Z,5
2018-01-05T03:00:00.758Z,5
2018-01-05T03:01:01.216Z,5
2018-01-05T03:02:01.017Z,5.03
2018-01-05T03:03:00.466Z,4.99
2018-01-05T03:04:00.834Z,5.07
2018-01-05T03:05:00.114Z,5.04
2018-01-05T03:06:00.413Z,5.08
2018-01-05T03:07:00.832Z,5.1
2018-01-05T03:08:00.067Z,5.12
2018-01-05T03:09:00.293Z,5.13
2018-01-05T03:10:00.611Z,5.13
2018-01-05T03:10:59.867Z,5.15
2018-01-05T03:12:00.044Z,5.18
2018-01-05T03:13:00.040Z,5.22
2018-01-05T03:14:00.366Z,5.21
2018-01-05T03:15:00.525Z,5.21
2018-01-05T03:16:00.802Z,5.25
2018-01-05T03:17:00.068Z,5.23
2018-01-05T03:18:00.411Z,5.22
2018-01-05T03:19:00.956Z,5.25
2018-01-05T03:20:00.710Z,5.28
2018-01-05T03:21:00.210Z,5.3
2018-01-05T03:22:00.612Z,5.27
2018-01-05T03:23:00.881Z,5.29
2018-01-05T03:24:00.551Z,5.26
2018-01-05T03:24:59.919Z,5.26
2018-01-05T03:26:00.158Z,5.28
2018-01-05T03:27:00.498Z,5.24
2018-01-05T03:28:00.814Z,5.27
2018-01-05T03:29:00.103Z,5.27
2018-01-05T03:30:00.437Z,5.29
2018-01-05T03:30:59.963Z,5.33
2018-01-05T03:32:00.218Z,5.25
2018-01-05T03:33:00.421Z,5.23
2018-01-05T03:33:59.699Z,5.24
2018-01-05T03:35:00.207Z,5.17
2018-01-05T03:36:00.392Z,5.2
2018-01-05T03:36:59.575Z,5.22
2018-01-05T03:37:59.763Z,5.14
2018-01-05T03:39:00.055Z,5.27
2018-01-05T03:40:00.387Z,5.15
2018-01-05T03:40:59.716Z,5.15
2018-01-05T03:42:00.042Z,5.17
2018-01-05T03:43:00.519Z,5.19
2018-01-05T03:43:59.841Z,5.22
2018-01-05T03:45:00.144Z,5.19
2018-01-05T03:45:59.664Z,5.26
2018-01-05T03:47:00.023Z,5.23
2018-01-05T03:48:00.400Z,5.22
2018-01-05T03:48:59.695Z,5.18
2018-01-05T03:49:59.961Z,5.15
2018-01-05T03:51:00.502Z,5.13
2018-01-05T03:51:59.903Z,5.16
2018-01-05T03:53:00.310Z,5.09
2018-01-05T03:53:59.681Z,5.11
2018-01-05T03:54:59.847Z,5.09
2018-01-05T03:56:00.031Z,5.1
2018-01-05T03:57:00.404Z,5.11
2018-01-05T03:57:59.550Z,5.02
2018-01-05T03:58:59.644Z,5.11
2018-01-05T03:59:59.974Z,5.11
2018-01-05T04:01:00.227Z,5.14
2018-01-05T04:02:00.425Z,5.14
2018-01-05T04:02:59.749Z,5.09
2018-01-05T04:04:00.194Z,5.14
2018-01-05T04:05:00.651Z,5.14
2018-01-05T04:06:01.403Z,5.16
2018-01-05T04:07:00.874Z,5.07
2018-01-05T04:08:00.208Z,5.05
2018-01-05T04:09:00.340Z,5.08
2018-01-05T04:10:00.634Z,5.11
2018-01-05T04:11:00.932Z,5.06
2018-01-05T04:12:00.261Z,5.05
2018-01-05T04:13:00.543Z,5.12
2018-01-05T04:14:00.639Z,5.09
2018-01-05T04:15:00.731Z,5.05
2018-01-05T04:16:00.936Z,5.09
2018-01-05T04:17:00.101Z,4.97
2018-01-05T04:18:00.448Z,4.96
2018-01-05T04:19:00.715Z,4.82
2018-01-05T04:20:00.911Z,4.96
2018-01-05T04:21:00.658Z,4.99
2018-01-05T04:22:00.821Z,5.06
2018-01-05T04:23:01.137Z,4.94
2018-01-05T04:24:00.503Z,5
2018-01-05T04:25:00.816Z,4.97
2018-01-05T04:26:01.083Z,4.92
2018-01-05T04:27:00.291Z,4.94
2018-01-05T04:28:00.501Z,4.91
2018-01-05T04:29:01.491Z,4.95
2018-01-05T04:30:00.786Z,4.89
2018-01-05T04:31:01.024Z,4.89
2018-01-05T04:32:00.326Z,4.88
2018-01-05T04:33:00.642Z,4.93
2018-01-05T04:34:01.024Z,4.93
2018-01-05T04:35:00.403Z,5.02
2018-01-05T04:36:00.628Z,5.03
2018-01-05T04:37:00.822Z,5.02
2018-01-05T04:38:00.151Z,4.99
2018-01-05T04:39:00.578Z,5.01
2018-01-05T04:40:00.125Z,4.97
2018-01-05T04:41:00.428Z,5.01
2018-01-05T04:42:00.690Z,4.91
2018-01-05T04:43:00.850Z,4.93
2018-01-05T04:43:59.948Z,4.85
2018-01-05T04:45:00.211Z,4.97
2018-01-05T04:46:00.597Z,4.94
2018-01-05T04:47:00.059Z,4.89
2018-01-05T04:48:00.341Z,4.93
2018-01-05T04:49:00.789Z,4.94
2018-01-05T04:50:00.244Z,4.93
2018-01-05T04:50:59.879Z,4.9
2018-01-05T04:52:00.033Z,4.88
2018-01-05T04:53:00.510Z,4.81
2018-01-05T04:54:00.853Z,4.8
2018-01-05T04:55:00.147Z,4.83
2018-01-05T04:56:01.596Z,4.85
2018-01-05T04:57:02.014Z,4.81
2018-01-05T04:58:00.516Z,4.84
2018-01-05T04:59:00.828Z,4.82
2018-01-05T04:59:59.996Z,4.86
2018-01-05T05:01:00.274Z,4.83
2018-01-05T05:02:00.603Z,4.8
2018-01-05T05:03:00.845Z,4.73
2018-01-05T05:04:00.072Z,4.8
2018-01-05T05:05:00.656Z,4.78
2018-01-05T05:05:59.925Z,4.78
2018-01-05T05:07:00.198Z,4.88
2018-01-05T05:07:59.634Z,4.82
2018-01-05T05:08:59.700Z,4.8
2018-01-05T05:09:59.796Z,4.89
2018-01-05T05:10:59.746Z,4.81
2018-01-05T05:11:59.686Z,4.79
2018-01-05T05:12:59.968Z,4.83
2018-01-05T05:14:00.198Z,4.85
2018-01-05T05:15:01.493Z,4.88
2018-01-05T05:15:59.682Z,4.82
2018-01-05T05:16:59.842Z,4.82
2018-01-05T05:18:00.076Z,4.78
2018-01-05T05:18:59.401Z,4.87
2018-01-05T05:19:59.658Z,4.85
2018-01-05T05:21:00.008Z,4.83
2018-01-05T05:22:00.252Z,4.73
2018-01-05T05:22:59.806Z,4.81
2018-01-05T05:24:00.061Z,4.81
2018-01-05T05:25:00.195Z,4.81
2018-01-05T05:25:59.353Z,4.87
2018-01-05T05:26:59.819Z,4.84
2018-01-05T05:28:00.196Z,4.89
2018-01-05T05:28:59.565Z,4.96
2018-01-05T05:29:59.927Z,4.85
2018-01-05T05:31:00.251Z,4.86
2018-01-05T05:31:59.512Z,4.87
2018-01-05T05:32:59.837Z,4.89
2018-01-05T05:34:00.394Z,4.92
2018-01-05T05:34:59.590Z,4.92
2018-01-05T05:35:59.911Z,4.94
2018-01-05T05:36:59.945Z,4.97
2018-01-05T05:38:00.011Z,4.91
2018-01-05T05:39:00.177Z,4.92
2018-01-05T05:40:00.367Z,4.89
2018-01-05T05:41:00.842Z,4.95
2018-01-05T05:42:00.113Z,4.98
2018-01-05T05:43:00.406Z,4.93
2018-01-05T05:44:00.622Z,4.8
2018-01-05T05:44:59.932Z,4.87
2018-01-05T05:45:59.942Z,4.87
2018-01-05T05:47:00.081Z,4.88
2018-01-05T05:48:00.277Z,4.91
2018-01-05T05:49:00.555Z,4.96
2018-01-05T05:50:01.101Z,4.89
2018-01-05T05:51:00.455Z,4.9
2018-01-05T05:52:00.701Z,4.91
2018-01-05T05:52:59.822Z,4.98
2018-01-05T05:53:59.963Z,4.87
2018-01-05T05:55:00.117Z,4.79
2018-01-05T05:56:00.574Z,4.81
2018-01-05T05:56:59.847Z,4.87
2018-01-05T05:57:59.977Z,4.9
2018-01-05T05:59:00.412Z,4.81
2018-01-05T06:00:00.652Z,4.8
2018-01-05T06:01:00.855Z,4.91
2018-01-05T06:02:00.180Z,4.9
2018-01-05T06:03:00.566Z,4.97
2018-01-05T06:03:59.864Z,5.02
2018-01-05T06:05:00.054Z,4.96
2018-01-05T06:06:00.335Z,4.9
2018-01-05T06:07:00.675Z,4.87
2018-01-05T06:08:00.913Z,4.87
2018-01-05T06:09:01.335Z,4.87
2018-01-05T06:10:00.608Z,4.88
2018-01-05T06:11:00.842Z,4.78
2018-01-05T06:12:01.019Z,4.79
2018-01-05T06:13:01.266Z,4.93
2018-01-05T06:14:00.548Z,4.81
2018-01-05T06:15:00.826Z,4.78
2018-01-05T06:16:01.008Z,4.89
2018-01-05T06:17:01.236Z,4.87
2018-01-05T06:18:00.766Z,4.86
2018-01-05T06:19:01.102Z,4.81
2018-01-05T06:20:00.370Z,4.91
2018-01-05T06:21:00.722Z,4.98
2018-01-05T06:22:00.983Z,4.98
2018-01-05T06:23:01.251Z,5.04
2018-01-05T06:24:00.358Z,5.05
2018-01-05T06:25:00.583Z,5.04
2018-01-05T06:26:00.911Z,5.04
2018-01-05T06:27:01.222Z,5.06
2018-01-05T06:28:00.589Z,5.06
2018-01-05T06:29:01.386Z,5.12
2018-01-05T06:30:00.758Z,5.12
2018-01-05T06:32:02.669Z,5.07
2018-01-05T06:33:01.061Z,5.1
2018-01-05T06:34:00.509Z,5.17
2018-01-05T06:35:00.935Z,5.17
2018-01-05T06:36:01.343Z,5.25
2018-01-05T06:37:00.305Z,5.24
2018-01-05T06:37:59.506Z,5.27
2018-01-05T06:38:59.793Z,5.3
2018-01-05T06:40:00.237Z,5.31
2018-01-05T06:40:59.477Z,5.32
2018-01-05T06:41:59.563Z,5.31
2018-01-05T06:42:59.811Z,5.32
2018-01-05T06:44:00.070Z,5.32
2018-01-05T06:45:00.375Z,5.32
2018-01-05T06:45:59.717Z,5.33
2018-01-05T06:46:59.886Z,5.43
2018-01-05T06:48:00.159Z,5.42
2018-01-05T06:48:59.378Z,5.42
2018-01-05T06:49:59.669Z,5.41
2018-01-05T06:51:00.304Z,5.41
2018-01-05T06:51:59.607Z,5.49
2018-01-05T06:52:59.952Z,5.43
2018-01-05T06:54:00.301Z,5.5
2018-01-05T06:54:59.715Z,5.5
2018-01-05T06:56:00.056Z,5.48
2018-01-05T06:57:00.295Z,5.49
2018-01-05T06:57:59.621Z,5.58
2018-01-05T06:58:59.949Z,5.56
2018-01-05T07:00:00.362Z,5.49
2018-01-05T07:01:00.007Z,5.56
2018-01-05T07:02:01.376Z,5.61
2018-01-05T07:02:59.595Z,5.6
2018-01-05T07:04:00.063Z,5.61
2018-01-05T07:04:59.345Z,5.61
2018-01-05T07:05:59.789Z,5.65
2018-01-05T07:07:00.215Z,5.66
2018-01-05T07:08:00.561Z,5.65
2018-01-05T07:09:01.606Z,5.65
2018-01-05T07:10:00.848Z,5.66
2018-01-05T07:11:00.463Z,5.7
2018-01-05T07:12:01.161Z,5.71
2018-01-05T07:13:00.225Z,5.76
2018-01-05T07:14:00.404Z,5.73
2018-01-05T07:15:00.780Z,5.77
2018-01-05T07:16:01.202Z,5.73
2018-01-05T07:17:00.625Z,5.79
2018-01-05T07:18:01.125Z,5.77
2018-01-05T07:19:00.645Z,5.77
2018-01-05T07:20:01.141Z,5.77
2018-01-05T07:21:00.535Z,5.77
2018-01-05T07:22:00.978Z,5.79
2018-01-05T07:23:01.184Z,5.8
2018-01-05T07:24:00.650Z,5.81
2018-01-05T07:25:01.090Z,5.82
2018-01-05T07:26:00.426Z,5.79
2018-01-05T07:27:00.794Z,5.82
2018-01-05T07:28:01.159Z,5.85
2018-01-05T07:29:00.485Z,5.85
2018-01-05T07:30:00.972Z,5.84
2018-01-05T07:31:00.240Z,5.87
2018-01-05T07:32:00.504Z,5.88
2018-01-05T07:33:00.868Z,5.9
2018-01-05T07:34:01.008Z,5.92
2018-01-05T07:35:00.406Z,5.93
2018-01-05T07:36:01.033Z,5.93
2018-01-05T07:37:00.349Z,5.95
2018-01-05T07:38:00.599Z,5.94
2018-01-05T07:39:00.978Z,5.98
2018-01-05T07:40:01.472Z,5.97
2018-01-05T07:41:01.005Z,5.96
2018-01-05T07:42:01.137Z,6.01
2018-01-05T07:43:01.338Z,6
2018-01-05T07:44:00.537Z,6.04
2018-01-05T07:45:00.952Z,6.05
2018-01-05T07:46:00.567Z,6.06
2018-01-05T07:47:01.423Z,6.08
2018-01-05T07:48:00.707Z,6.08
2018-01-05T07:49:00.760Z,6.08
2018-01-05T07:50:00.964Z,6.1
2018-01-05T07:51:01.318Z,6.11
2018-01-05T07:52:00.710Z,6.12
2018-01-05T07:53:01.088Z,6.08
2018-01-05T07:59:04.865Z,6.17
2018-01-05T08:00:01.243Z,6.18
2018-01-05T08:01:00.655Z,6.2
2018-01-05T08:02:00.812Z,6.18
2018-01-05T08:03:01.081Z,6.22
2018-01-05T08:04:00.615Z,6.2
2018-01-05T08:05:01.250Z,6.19
2018-01-05T08:06:00.601Z,6.23
2018-01-05T08:07:00.940Z,6.24
2018-01-05T08:08:00.537Z,6.26
2018-01-05T08:09:00.106Z,6.28
2018-01-05T08:10:00.649Z,6.27
2018-01-05T08:11:00.240Z,6.29
2018-01-05T08:12:00.583Z,6.37
2018-01-05T08:13:00.908Z,6.32
2018-01-05T08:14:00.325Z,6.35
2018-01-05T08:15:00.621Z,6.35
2018-01-05T08:16:00.025Z,6.34
2018-01-05T08:17:00.515Z,6.28
2018-01-05T08:18:01.443Z,6.28
2018-01-05T08:19:00.026Z,6.32
2018-01-05T08:20:00.736Z,6.31
2018-01-05T08:21:00.138Z,6.33
2018-01-05T08:22:00.553Z,6.3
2018-01-05T08:23:00.898Z,6.34
2018-01-05T08:24:00.251Z,6.34
2018-01-05T08:25:00.644Z,6.32
2018-01-05T08:26:00.822Z,6.33
2018-01-05T08:27:00.407Z,6.33
2018-01-05T08:28:00.640Z,6.35
2018-01-05T08:29:00.822Z,6.37
2018-01-05T08:30:00.256Z,6.35
2018-01-05T08:31:00.716Z,6.34
2018-01-05T08:32:00.065Z,6.34
2018-01-05T08:33:00.301Z,6.38
2018-01-05T08:34:00.592Z,6.34
2018-01-05T08:35:00.133Z,6.33
2018-01-05T08:36:00.481Z,6.32
2018-01-05T08:37:00.776Z,6.33
2018-01-05T08:38:00.457Z,6.35
2018-01-05T08:39:00.806Z,6.35
2018-01-05T08:40:01.142Z,6.39
2018-01-05T08:41:00.622Z,6.38
2018-01-05T08:42:01.373Z,6.36
2018-01-05T08:43:00.953Z,6.4
2018-01-05T08:44:01.218Z,6.4
2018-01-05T08:45:00.406Z,6.36
2018-01-05T08:46:00.582Z,6.38
2018-01-05T08:47:00.829Z,6.39
2018-01-05T08:48:01.155Z,6.38
2018-01-05T08:49:00.603Z,6.36
2018-01-05T08:50:00.948Z,6.34
2018-01-05T08:51:01.196Z,6.39
2018-01-05T08:52:00.595Z,6.38
2018-01-05T08:53:01.006Z,6.35
2018-01-05T08:54:00.441Z,6.37
2018-01-05T08:55:00.648Z,6.39
2018-01-05T08:56:00.898Z,6.39
2018-01-05T08:57:01.218Z,6.36
2018-01-05T08:58:00.648Z,6.37
2018-01-05T08:59:01.051Z,6.4
2018-01-05T09:00:00.482Z,6.39
2018-01-05T09:01:00.817Z,6.41
2018-01-05T09:02:01.200Z,6.43
2018-01-05T09:03:00.465Z,6.43
2018-01-05T09:04:00.864Z,6.43
2018-01-05T09:05:01.458Z,6.44
2018-01-05T09:06:00.880Z,6.4
2018-01-05T09:07:01.309Z,6.43
2018-01-05T09:08:00.984Z,6.44
2018-01-05T09:09:00.394Z,6.45
2018-01-05T09:10:00.970Z,6.46
2018-01-05T09:11:00.609Z,6.45
2018-01-05T09:11:59.974Z,6.45
2018-01-05T09:13:00.146Z,6.38
2018-01-05T09:14:00.265Z,6.39
2018-01-05T09:15:00.792Z,6.36
2018-01-05T09:16:00.138Z,6.38
2018-01-05T09:17:00.424Z,6.35
2018-01-05T09:18:00.936Z,6.37
2018-01-05T09:19:00.218Z,6.33
2018-01-05T09:20:00.386Z,6.35
2018-01-05T09:21:00.983Z,6.42
2018-01-05T09:22:00.522Z,6.4
2018-01-05T09:23:00.847Z,6.38
2018-01-05T09:24:00.119Z,6.37
2018-01-05T09:25:00.329Z,6.39
2018-01-05T09:26:00.618Z,6.37
2018-01-05T09:27:00.883Z,6.4
2018-01-05T09:28:00.374Z,6.43
2018-01-05T09:29:00.755Z,6.43
2018-01-05T09:30:00.082Z,6.43
2018-01-05T09:31:00.577Z,6.43
2018-01-05T09:32:00.043Z,6.43
2018-01-05T09:33:00.710Z,6.41
2018-01-05T09:34:00.967Z,6.5
2018-01-05T09:35:00.313Z,6.45
2018-01-05T09:36:00.586Z,6.46
2018-01-05T09:37:00.725Z,6.41
2018-01-05T09:38:00.213Z,6.47
2018-01-05T09:39:00.830Z,6.51
2018-01-05T09:40:00.244Z,6.52
2018-01-05T09:41:00.542Z,6.49
2018-01-05T09:41:59.807Z,6.53
2018-01-05T09:43:00.100Z,6.5
2018-01-05T09:43:59.612Z,6.52
2018-01-05T09:44:59.970Z,6.55
2018-01-05T09:46:00.515Z,6.63
2018-01-05T09:46:59.843Z,6.62
2018-01-05T09:48:00.122Z,6.6
2018-01-05T09:49:00.442Z,6.64
2018-01-05T09:49:59.954Z,6.67
2018-01-05T09:51:00.149Z,6.67
2018-01-05T09:52:00.254Z,6.7
2018-01-05T09:53:00.353Z,6.7
2018-01-05T09:54:00.535Z,6.73
2018-01-05T09:55:00.210Z,6.73
2018-01-05T09:56:00.559Z,6.75
2018-01-05T09:56:59.649Z,6.77
2018-01-05T09:57:59.893Z,6.79
2018-01-05T09:59:00.336Z,6.77
2018-01-05T10:00:00.341Z,6.74
2018-01-05T10:01:00.634Z,6.77
2018-01-05T10:01:59.982Z,6.81
2018-01-05T10:03:00.257Z,6.81
2018-01-05T10:04:00.489Z,6.85
2018-01-05T10:04:59.886Z,6.78
2018-01-05T10:06:00.475Z,6.85
2018-01-05T10:06:59.774Z,6.85
2018-01-05T10:07:59.967Z,6.87
2018-01-05T10:09:00.143Z,6.92
2018-01-05T10:10:00.493Z,6.97
2018-01-05T10:11:01.138Z,6.96
2018-01-05T10:12:01.358Z,6.97
2018-01-05T10:13:00.694Z,6.93
2018-01-05T10:14:01.006Z,6.91
2018-01-05T10:15:01.257Z,6.93
2018-01-05T10:16:00.324Z,6.98
2018-01-05T10:17:00.571Z,6.97
2018-01-05T10:18:00.816Z,7.03
2018-01-05T10:19:01.223Z,7.06
2018-01-05T10:20:00.492Z,7.04
2018-01-05T10:21:00.820Z,7.01
2018-01-05T10:22:00.997Z,7.03
2018-01-05T10:23:01.299Z,7.07
2018-01-05T10:24:00.508Z,7.07
2018-01-05T10:25:04.428Z,7.05
2018-01-05T10:26:00.850Z,7.11
2018-01-05T10:27:01.520Z,7.02
2018-01-05T10:28:01.085Z,7.03
2018-01-05T10:29:00.420Z,7.11
2018-01-05T10:30:00.763Z,7.06
2018-01-05T10:31:01.311Z,7.09
2018-01-05T10:32:00.907Z,7.08
2018-01-05T10:33:01.349Z,7.12
2018-01-05T10:34:00.691Z,7.17
2018-01-05T10:35:00.869Z,7.15
2018-01-05T10:36:01.245Z,7.08
2018-01-05T10:37:00.741Z,7.06
2018-01-05T10:38:01.379Z,7.06
2018-01-05T10:39:00.910Z,7.11
2018-01-05T10:40:01.371Z,7.09
2018-01-05T10:41:00.813Z,7.14
2018-01-05T10:42:01.192Z,7.21
2018-01-05T10:43:00.482Z,7.12
2018-01-05T10:44:00.921Z,7.14
2018-01-05T10:45:00.554Z,7.17
2018-01-05T10:46:01.054Z,7.19
2018-01-05T10:47:00.358Z,7.22
2018-01-05T10:48:00.657Z,7.21
2018-01-05T10:49:00.896Z,7.19
2018-01-05T10:50:00.394Z,7.2
2018-01-05T10:51:00.874Z,7.18
2018-01-05T10:52:00.430Z,7.24
2018-01-05T10:53:00.834Z,7.26
2018-01-05T10:54:01.215Z,7.23
2018-01-05T10:55:00.621Z,7.28
2018-01-05T10:56:01.058Z,7.31
2018-01-05T10:57:00.236Z,7.37
2018-01-05T10:58:00.725Z,7.38
2018-01-05T10:59:06.682Z,7.3
2018-01-05T11:00:00.379Z,7.37
2018-01-05T11:01:00.827Z,7.37
2018-01-05T11:02:01.075Z,7.4
2018-01-05T11:03:00.442Z,7.41
2018-01-05T11:04:00.786Z,7.42
2018-01-05T11:05:01.162Z,7.46
2018-01-05T11:06:00.554Z,7.49
2018-01-05T11:07:00.972Z,7.52
2018-01-05T11:08:00.385Z,7.57
2018-01-05T11:09:00.608Z,7.6
2018-01-05T11:10:01.197Z,7.72
2018-01-05T11:11:00.869Z,7.73
2018-01-05T11:12:00.392Z,7.81
2018-01-05T11:12:59.687Z,7.79
2018-01-05T11:13:59.839Z,7.9
2018-01-05T11:15:00.217Z,7.88
2018-01-05T11:16:00.892Z,7.85
2018-01-05T11:17:00.433Z,7.88
2018-01-05T11:17:59.857Z,7.74
2018-01-05T11:19:00.143Z,7.83
2018-01-05T11:20:00.446Z,7.73
2018-01-05T11:20:59.791Z,7.75
2018-01-05T11:22:00.458Z,7.71
2018-01-05T11:23:00.601Z,7.73
2018-01-05T11:24:00.373Z,7.72
2018-01-05T11:25:01.303Z,7.74
2018-01-05T11:26:07.159Z,7.76
2018-01-05T11:27:00.099Z,7.78
2018-01-05T11:28:00.728Z,7.81
2018-01-05T11:29:00.046Z,7.57
2018-01-05T11:30:00.431Z,7.68
2018-01-05T11:31:00.092Z,7.61
2018-01-05T11:32:00.380Z,7.61
2018-01-05T11:32:59.935Z,7.63
2018-01-05T11:34:00.411Z,7.49
2018-01-05T11:34:59.858Z,7.61
2018-01-05T11:36:00.096Z,7.56
2018-01-05T11:37:00.344Z,7.57
2018-01-05T11:38:01.578Z,7.45
2018-01-05T11:38:59.831Z,7.54
2018-01-05T11:40:00.096Z,7.55
2018-01-05T11:41:00.530Z,7.59
2018-01-05T11:41:59.882Z,7.55
2018-01-05T11:43:00.309Z,7.58
2018-01-05T11:44:00.724Z,7.64
2018-01-05T11:45:00.255Z,7.65
2018-01-05T11:46:00.635Z,7.68
2018-01-05T11:47:00.772Z,7.71
2018-01-05T11:48:00.294Z,7.76
2018-01-05T11:49:00.850Z,7.78
2018-01-05T11:50:00.093Z,7.82
2018-01-05T11:51:00.605Z,7.77
2018-01-05T11:52:00.117Z,7.86
2018-01-05T11:53:00.607Z,7.95
2018-01-05T11:54:00.335Z,7.91
2018-01-05T11:55:03.478Z,8.03
2018-01-05T11:56:00.894Z,8.01
2018-01-05T11:57:00.400Z,7.98
2018-01-05T11:58:00.791Z,8
2018-01-05T11:59:00.212Z,8.04
2018-01-05T12:00:00.709Z,8.04
2018-01-05T12:01:00.300Z,8.04
2018-01-05T12:02:00.925Z,8.07
2018-01-05T12:03:00.168Z,8.07
2018-01-05T12:04:00.850Z,8.1
2018-01-05T12:05:00.548Z,8.08
2018-01-05T12:06:00.996Z,8.09
2018-01-05T12:07:00.577Z,8.19
2018-01-05T12:08:00.087Z,8.1
2018-01-05T12:09:00.432Z,8.23
2018-01-05T12:10:00.703Z,8.25
2018-01-05T12:11:00.111Z,8.22
2018-01-05T12:12:00.603Z,8.2
2018-01-05T12:12:59.934Z,8.2
2018-01-05T12:14:00.421Z,8.17
2018-01-05T12:15:00.150Z,8.19
2018-01-05T12:15:59.889Z,8.25
2018-01-05T12:17:00.140Z,8.18
2018-01-05T12:18:00.519Z,8.3
2018-01-05T12:19:00.014Z,8.24
2018-01-05T12:20:00.513Z,8.3
2018-01-05T12:20:59.868Z,8.36
2018-01-05T12:22:00.263Z,8.27
2018-01-05T12:22:59.769Z,8.25
2018-01-05T12:24:00.275Z,8.27
2018-01-05T12:25:01.077Z,8.34
2018-01-05T12:26:02.257Z,8.29
2018-01-05T12:26:59.927Z,8.44
2018-01-05T12:27:59.882Z,8.4
2018-01-05T12:29:00.131Z,8.42
2018-01-05T12:30:00.688Z,8.43
2018-01-05T12:31:01.350Z,8.35
2018-01-05T12:31:59.702Z,8.37
2018-01-05T12:33:02.092Z,8.35
2018-01-05T12:34:00.358Z,8.32
2018-01-05T12:34:59.851Z,8.29
2018-01-05T12:36:00.162Z,8.28
2018-01-05T12:37:00.401Z,8.28
2018-01-05T12:37:59.924Z,8.29
2018-01-05T12:39:00.224Z,8.28
2018-01-05T12:39:59.718Z,8.3
2018-01-05T12:41:00.290Z,8.49
2018-01-05T12:41:59.722Z,8.36
2018-01-05T12:43:00.229Z,8.4
2018-01-05T12:44:00.938Z,8.47
2018-01-05T12:45:00.789Z,8.48
2018-01-05T12:46:00.234Z,8.42
2018-01-05T12:47:00.485Z,8.56
2018-01-05T12:48:00.988Z,8.56
2018-01-05T12:49:00.406Z,8.55
2018-01-05T12:50:00.560Z,8.53
2018-01-05T12:51:00.780Z,8.62
2018-01-05T12:52:01.574Z,8.55
2018-01-05T12:53:00.254Z,8.56
2018-01-05T12:54:00.611Z,8.58
2018-01-05T12:55:01.173Z,8.63
2018-01-05T12:56:00.478Z,8.57
2018-01-05T12:57:00.694Z,8.62
2018-01-05T12:58:00.933Z,8.56
2018-01-05T12:59:00.363Z,8.58
2018-01-05T13:00:01.051Z,8.71
2018-01-05T13:01:00.391Z,8.66
2018-01-05T13:02:00.817Z,8.73
2018-01-05T13:03:00.211Z,8.77
2018-01-05T13:04:00.636Z,8.83
2018-01-05T13:05:01.081Z,8.74
2018-01-05T13:06:00.382Z,8.68
2018-01-05T13:07:00.661Z,8.75
2018-01-05T13:08:00.913Z,8.75
2018-01-05T13:09:00.367Z,8.69
2018-01-05T13:10:00.940Z,8.77
2018-01-05T13:11:00.091Z,8.76
2018-01-05T13:12:00.267Z,8.76
2018-01-05T13:13:00.575Z,8.84
2018-01-05T13:13:59.878Z,8.78
2018-01-05T13:15:00.232Z,8.79
2018-01-05T13:16:00.611Z,8.82
2018-01-05T13:16:59.927Z,8.83
2018-01-05T13:18:00.272Z,8.85
2018-01-05T13:18:59.751Z,8.8
2018-01-05T13:20:00.166Z,8.78
2018-01-05T13:21:00.476Z,8.9
2018-01-05T13:22:00.176Z,8.87
2018-01-05T13:23:00.552Z,8.82
2018-01-05T13:23:59.914Z,8.79
2018-01-05T13:25:00.290Z,8.83
2018-01-05T13:25:59.692Z,8.83
2018-01-05T13:26:59.965Z,8.79
2018-01-05T13:28:00.160Z,8.87
2018-01-05T13:29:00.363Z,8.86
2018-01-05T13:30:00.557Z,8.85
2018-01-05T13:31:00.042Z,8.92